Date,TemperatureHighF,TemperatureAvgF,TemperatureLowF,DewpointHighF,DewpointAvgF,DewpointLowF,HumidityHigh,HumidityAvg,HumidityLow,PressureMaxIn,PressureMinIn,WindSpeedMaxMPH,WindSpeedAvgMPH,GustSpeedMaxMPH,PrecipitationSumIn
2013-1-1,44.1,40.7,36.0,42.8,36.9,29.8,95,86,78,0.00,40.00,20,7,22,0.00
2013-1-2,38.3,34.7,29.3,30.0,28.2,25.2,87,77,67,0.00,40.00,14,5,15,0.00
2013-1-3,48.6,38.0,27.0,31.1,27.4,23.5,89,68,41,0.00,40.00,17,4,18,0.00
2013-1-4,48.7,42.5,37.0,32.4,29.5,27.1,73,60,46,0.00,40.00,9,2,10,0.00
2013-1-5,52.3,43.2,36.5,39.2,36.3,32.2,91,77,56,0.00,40.00,13,3,14,0.01
2013-1-6,55.9,41.5,32.2,35.6,28.8,23.4,92,65,29,0.00,40.00,17,4,18,0.00
2013-1-7,55.2,43.6,31.3,36.3,27.9,20.5,67,55,39,0.00,40.00,15,4,15,0.00
2013-1-8,48.9,46.7,45.0,47.5,41.0,32.5,95,81,59,0.00,40.00,15,5,16,0.57
2013-1-9,55.8,53.0,47.8,55.0,51.5,46.4,98,94,92,0.00,40.00,26,9,30,1.42
2013-1-10,59.7,55.2,47.7,57.6,49.4,42.4,96,82,57,0.00,40.00,24,8,29,0.04
2013-1-11,70.9,58.3,46.4,59.9,48.8,42.1,86,72,47,0.00,40.00,29,8,32,0.00
2013-1-12,73.2,55.7,36.1,67.8,52.4,31.5,95,88,69,0.00,40.00,31,9,33,0.09
2013-1-13,42.4,35.0,28.8,32.0,24.8,18.5,82,67,50,0.00,40.00,25,11,28,0.00
2013-1-14,43.0,33.5,26.4,26.6,22.3,18.9,74,64,49,0.00,40.00,20,7,20,0.00
2013-1-15,36.3,32.7,28.6,30.7,25.9,20.8,91,77,62,0.00,40.00,18,7,22,0.05
2013-1-16,46.8,36.3,28.0,22.5,20.3,15.3,72,54,32,0.00,40.00,14,4,16,0.00
2013-1-17,59.2,45.0,31.8,35.2,28.6,22.1,68,54,32,0.00,40.00,20,5,20,0.00
2013-1-18,61.5,47.8,36.0,36.0,32.1,27.0,75,56,34,0.00,40.00,17,5,22,0.00
2013-1-19,64.8,48.9,38.5,45.9,38.9,33.1,86,70,42,0.00,40.00,21,6,25,0.00
2013-1-20,68.7,53.0,40.8,48.4,42.7,37.4,92,71,38,0.00,40.00,15,4,17,0.00
2013-1-21,57.9,46.8,36.9,44.2,34.6,25.0,90,64,45,0.00,40.00,17,5,18,0.00
2013-1-22,63.5,49.1,34.9,45.7,37.4,24.4,78,65,50,0.00,40.00,13,4,13,0.00
2013-1-23,72.5,58.8,47.7,54.0,50.1,44.2,90,74,50,0.00,40.00,26,7,27,0.00
2013-1-24,77.0,61.9,54.3,60.4,55.7,51.3,99,82,50,0.00,40.00,18,6,18,0.00
2013-1-25,61.2,50.5,45.1,57.7,44.9,38.3,95,81,69,0.00,40.00,16,6,17,0.00
2013-1-26,49.8,47.2,44.1,47.3,44.5,38.3,95,90,72,0.00,40.00,13,4,14,0.00
2013-1-27,75.0,61.7,47.7,61.9,56.2,46.2,99,84,54,0.00,40.00,33,8,33,0.00
2013-1-28,77.0,71.2,66.0,64.4,62.3,59.7,89,74,60,0.00,40.00,28,10,32,0.00
2013-1-29,77.2,66.6,52.9,65.1,59.2,32.2,90,77,41,0.00,40.00,33,11,37,0.41
2013-1-30,55.8,46.8,38.3,38.5,26.8,19.4,74,47,30,0.00,40.00,32,11,33,0.00
2013-1-31,67.8,49.8,33.3,31.3,23.7,17.1,66,41,15,0.00,40.00,28,7,28,0.00
2013-2-1,61.3,44.3,28.0,37.0,27.2,17.8,66,52,31,0.00,40.00,19,6,20,0.00
2013-2-2,66.7,54.7,45.0,45.5,36.8,29.3,81,54,26,0.00,40.00,17,6,19,0.00
2013-2-3,69.4,54.6,40.5,42.3,32.0,25.3,85,47,20,0.00,40.00,13,3,14,0.00
2013-2-4,70.3,59.7,53.6,55.0,46.9,31.1,90,64,39,0.00,40.00,23,7,26,0.00
2013-2-5,65.3,58.7,54.9,60.6,56.3,52.7,98,92,80,0.00,40.00,12,4,12,0.00
2013-2-6,72.0,61.7,54.3,61.2,56.7,52.7,95,85,57,0.00,40.00,19,7,19,0.00
2013-2-7,77.0,62.8,55.2,59.2,53.2,38.7,94,74,27,0.00,40.00,29,9,29,0.00
2013-2-8,62.2,52.2,42.6,46.0,34.3,23.9,78,54,24,0.00,40.00,23,7,27,0.00
2013-2-9,60.1,49.2,45.3,58.1,44.2,35.2,94,83,67,0.00,40.00,23,9,24,0.02
2013-2-10,66.7,58.8,49.1,62.6,39.1,19.9,97,55,18,0.00,40.00,33,7,34,0.57
2013-2-11,55.0,49.8,45.0,39.6,34.1,29.5,77,55,39,0.00,40.00,19,6,20,0.00
2013-2-12,48.6,46.3,43.3,45.9,43.1,37.8,93,89,77,0.00,40.00,25,6,25,0.51
2013-2-13,55.8,44.2,39.6,38.8,35.3,32.7,88,72,42,0.00,40.00,24,6,28,0.00
2013-2-14,68.9,51.0,35.8,40.6,35.1,28.6,90,60,23,0.00,40.00,16,4,17,0.00
2013-2-15,50.2,45.5,34.9,39.0,27.8,14.9,73,51,27,0.00,40.00,23,8,26,0.00
2013-2-16,54.3,42.2,31.3,30.7,25.6,21.0,69,53,29,0.00,40.00,15,3,15,0.00
2013-2-17,69.6,53.1,37.0,44.4,31.5,24.4,74,48,19,0.00,40.00,33,10,33,0.00
2013-2-18,78.4,60.4,49.6,57.2,43.1,31.3,78,56,24,0.00,40.00,40,12,40,0.00
2013-2-19,59.9,49.6,36.0,32.0,25.9,19.4,72,42,21,0.00,40.00,16,5,16,0.00
2013-2-20,50.2,43.5,39.6,40.1,34.9,30.2,86,72,46,0.00,40.00,25,10,25,0.08
2013-2-21,66.4,51.8,42.3,50.0,38.0,30.4,92,63,28,0.00,40.00,33,8,33,0.11
2013-2-22,48.6,39.6,31.5,37.2,26.6,20.1,82,61,41,0.00,40.00,19,7,19,0.00
2013-2-23,55.2,41.4,28.4,28.8,25.4,21.2,80,55,31,0.00,40.00,16,4,17,0.00
2013-2-24,68.4,53.8,36.3,42.6,35.7,28.0,79,53,27,0.00,40.00,22,8,24,0.00
2013-2-25,62.1,51.5,39.9,52.3,37.9,26.8,85,62,27,0.00,40.00,33,10,37,0.06
2013-2-26,56.7,46.5,40.5,34.5,31.6,28.0,73,57,34,0.00,40.00,37,10,37,0.00
2013-2-27,55.8,45.6,35.4,33.6,26.4,17.6,80,50,25,0.00,40.00,24,10,26,0.00
2013-2-28,57.2,45.2,34.7,29.7,26.0,20.1,78,49,27,0.00,40.00,22,10,25,0.00
2013-3-1,54.1,43.0,32.9,31.6,28.2,23.7,79,57,38,0.00,40.00,20,6,21,0.00
2013-3-2,52.9,40.5,30.0,27.3,21.8,15.4,74,50,27,0.00,40.00,21,8,21,0.00
2013-3-3,68.9,53.0,33.1,42.4,28.2,21.7,71,41,23,0.00,40.00,30,10,32,0.00
2013-3-4,83.8,65.4,54.9,52.2,45.5,37.6,71,51,21,0.00,40.00,35,13,35,0.00
2013-3-5,64.8,50.2,40.5,50.0,26.1,15.4,66,42,20,0.00,40.00,36,13,36,0.00
2013-3-6,61.2,46.2,32.7,24.1,20.0,11.3,62,38,16,0.00,40.00,13,4,15,0.00
2013-3-7,70.2,54.2,40.6,33.3,25.4,17.8,52,34,18,0.00,40.00,22,7,24,0.00
2013-3-8,64.0,58.1,52.0,54.9,48.4,33.1,79,71,42,0.00,40.00,17,7,17,0.00
2013-3-9,68.9,63.7,59.4,63.1,57.5,52.9,91,80,74,0.00,40.00,23,10,26,0.05
2013-3-10,64.2,51.2,42.3,60.8,39.9,28.2,92,67,49,0.00,40.00,29,10,32,0.56
2013-3-11,57.0,44.3,34.3,30.4,25.3,15.6,79,51,21,0.00,40.00,18,6,20,0.00
2013-3-12,66.0,51.6,37.2,32.2,26.6,21.0,65,41,19,0.00,40.00,14,4,16,0.00
2013-3-13,68.2,54.8,42.3,35.4,32.2,28.8,67,45,24,0.00,40.00,14,4,14,0.00
2013-3-14,76.3,60.4,47.7,45.1,37.5,30.6,61,44,27,0.00,40.00,27,8,29,0.00
2013-3-15,79.3,65.4,51.4,52.9,46.3,39.6,87,55,26,0.00,40.00,30,10,33,0.00
2013-3-16,81.0,68.5,56.8,57.4,53.1,46.8,87,60,39,0.00,40.00,33,13,33,0.00
2013-3-17,75.4,67.4,57.7,60.1,55.4,48.4,84,66,45,0.00,40.00,31,8,31,0.00
2013-3-18,69.1,61.8,51.4,62.4,48.0,35.6,91,63,38,0.00,40.00,22,9,26,0.00
2013-3-19,66.7,56.2,43.3,42.6,36.1,30.6,79,49,31,0.00,40.00,20,6,22,0.00
2013-3-20,66.0,56.1,44.6,35.1,30.4,22.1,66,40,20,0.00,40.00,16,5,21,0.00
2013-3-21,68.9,59.0,48.7,54.9,40.1,28.9,68,50,30,0.00,40.00,29,10,31,0.00
2013-3-22,65.5,53.4,46.0,59.5,48.3,41.4,92,83,66,0.00,40.00,20,7,22,0.00
2013-3-23,54.7,49.4,46.0,49.8,46.0,44.1,94,88,78,0.00,40.00,26,6,28,0.04
2013-3-24,52.0,45.3,39.6,47.1,29.0,20.3,91,55,32,0.00,40.00,33,14,37,0.05
2013-3-25,53.2,42.1,31.3,24.3,18.8,10.9,67,41,21,0.00,40.00,26,9,28,0.00
2013-3-26,56.5,42.8,29.1,23.9,18.9,15.8,61,40,23,0.00,40.00,13,3,14,0.00
2013-3-27,70.3,53.3,36.9,39.9,29.3,20.7,58,42,21,0.00,40.00,26,8,30,0.00
2013-3-28,70.9,61.4,49.8,55.0,49.3,39.6,81,65,53,0.00,40.00,22,8,26,0.00
2013-3-29,75.9,66.5,59.5,57.6,55.2,53.1,82,68,49,0.00,40.00,25,8,27,0.00
2013-3-30,76.5,66.1,54.9,62.2,58.8,53.4,96,78,58,0.00,40.00,28,6,28,0.97
2013-3-31,72.3,65.6,57.6,62.2,56.2,47.3,92,73,51,0.00,40.00,33,6,33,0.36
2013-4-1,78.6,66.6,50.7,52.3,47.4,43.0,81,52,31,0.00,40.00,12,2,16,0.00
2013-4-2,72.5,65.0,50.7,62.1,55.0,39.4,83,70,61,0.00,40.00,27,7,27,0.01
2013-4-3,53.6,48.0,44.6,46.2,43.4,41.4,92,84,69,0.00,40.00,23,7,26,0.54
2013-4-4,50.5,45.5,41.5,42.4,39.6,37.6,89,80,67,0.00,40.00,18,6,19,0.03
2013-4-5,69.6,55.3,41.5,48.6,42.8,38.1,88,65,37,0.00,40.00,13,4,14,0.00
2013-4-6,74.7,63.7,53.1,56.3,50.7,45.3,82,64,41,0.00,40.00,33,10,35,0.00
2013-4-7,72.7,66.2,59.2,60.8,57.4,53.8,86,74,62,0.00,40.00,27,8,29,0.00
2013-4-8,76.1,70.4,64.2,62.6,60.1,56.5,80,70,61,0.00,40.00,30,12,32,0.00
2013-4-9,82.9,74.4,67.5,66.2,62.7,59.2,85,68,47,0.00,40.00,30,11,33,0.00
2013-4-10,73.2,49.1,40.1,67.6,44.4,33.8,91,84,69,0.00,40.00,29,11,32,0.29
2013-4-11,61.3,47.4,38.7,39.2,33.2,28.8,80,60,35,0.00,40.00,21,5,26,0.01
2013-4-12,77.4,59.2,42.3,46.8,41.5,37.0,85,56,26,0.00,40.00,12,3,13,0.00
2013-4-13,79.0,66.6,51.6,51.4,45.8,42.1,74,49,29,0.00,40.00,19,6,23,0.00
2013-4-14,79.9,68.4,55.8,63.1,55.8,45.0,82,65,52,0.00,40.00,28,8,28,0.00
2013-4-15,85.8,76.2,66.9,66.7,64.3,61.7,91,68,48,0.00,40.00,28,10,32,0.00
2013-4-16,87.4,77.4,70.9,67.1,64.9,62.2,84,67,44,0.00,40.00,21,8,25,0.00
2013-4-17,84.4,77.3,73.2,69.8,67.0,63.9,85,71,52,0.00,40.00,33,12,33,0.00
2013-4-18,74.8,55.3,45.3,70.2,45.6,31.5,93,71,48,0.00,40.00,32,13,35,1.12
2013-4-19,61.2,49.7,40.8,34.0,29.4,24.6,72,48,25,0.00,40.00,22,7,24,0.00
2013-4-20,47.7,45.0,41.4,35.8,34.0,32.7,73,65,57,0.00,40.00,11,3,12,0.00
2013-4-24,59.2,55.1,52.9,37.8,36.6,34.7,55,50,42,0.00,40.00,7,2,10,0.01
2013-4-25,72.7,60.6,47.7,46.8,39.6,32.2,63,47,28,0.00,40.00,16,5,19,0.00
2013-4-26,77.5,66.3,56.8,65.1,55.1,42.3,81,68,49,0.00,40.00,20,7,20,0.00
2013-4-27,72.9,68.3,59.0,64.2,58.6,53.2,86,72,54,0.00,40.00,21,6,22,0.00
2013-4-28,82.4,66.3,53.2,64.4,57.6,50.9,93,76,49,0.00,40.00,12,3,15,0.00
2013-4-29,84.0,72.5,59.5,65.5,59.6,54.3,92,67,38,0.00,40.00,20,5,21,0.00
2013-4-30,82.4,70.6,59.9,64.4,59.8,54.5,91,70,47,0.00,40.00,17,5,19,0.00
2013-5-1,83.1,72.0,62.6,66.4,61.6,57.2,91,72,42,0.00,40.00,14,5,16,0.00
2013-5-2,66.4,52.9,42.6,60.6,46.8,34.0,89,80,67,0.00,40.00,31,12,34,0.03
2013-5-3,64.9,52.6,39.4,35.6,30.2,23.5,77,47,21,0.00,40.00,32,11,35,0.00
2013-5-4,71.1,58.0,41.5,43.9,32.2,21.7,77,42,16,0.00,40.00,29,6,32,0.00
2013-5-5,65.7,55.0,45.0,46.6,41.5,37.2,77,61,46,0.00,40.00,20,6,20,0.00
2013-5-6,76.3,63.1,48.6,54.3,49.1,43.3,91,63,38,0.00,40.00,14,3,16,0.00
2013-5-7,83.7,71.0,57.6,55.4,50.7,45.3,75,51,28,0.00,40.00,12,3,13,0.00
2013-5-8,85.5,72.6,61.5,59.9,54.9,51.1,75,56,31,0.00,40.00,23,7,24,0.00
2013-5-9,71.8,68.4,65.3,66.4,62.9,56.3,96,83,60,0.00,40.00,17,5,21,0.32
2013-5-10,79.9,69.8,62.8,65.7,62.2,56.3,95,79,51,0.00,40.00,14,3,14,0.01
2013-5-11,78.3,69.4,58.3,57.6,50.5,41.7,86,54,28,0.00,40.00,22,6,24,0.00
2013-5-12,77.2,66.3,54.7,52.0,39.7,26.4,68,41,18,0.00,40.00,18,4,19,0.00
2013-5-13,86.2,70.5,52.9,49.8,45.5,37.8,75,44,23,0.00,40.00,22,6,22,0.00
2013-5-14,86.4,73.5,59.5,60.6,53.7,45.9,86,53,26,0.00,40.00,23,7,26,0.00
2013-5-15,78.8,70.4,62.1,67.8,64.5,58.5,96,82,62,0.00,40.00,24,9,26,1.51
2013-5-16,81.1,69.9,62.1,69.4,64.7,59.7,97,84,66,0.00,40.00,27,6,27,0.10
2013-5-17,89.8,79.6,71.4,73.0,70.6,68.2,95,76,55,0.00,40.00,23,6,24,0.00
2013-5-18,92.1,81.1,71.4,72.7,68.8,65.3,85,68,46,0.00,40.00,23,9,29,0.00
2013-5-19,89.8,79.6,69.6,69.3,67.3,65.5,89,68,47,0.00,40.00,30,10,32,0.00
2013-5-20,90.0,80.2,73.6,70.3,68.3,65.7,82,68,46,0.00,40.00,29,10,31,0.00
2013-5-21,84.6,72.6,62.1,70.5,65.7,59.2,95,80,61,0.00,40.00,38,8,41,1.22
2013-5-22,84.0,69.9,57.0,64.0,59.1,53.1,95,72,38,0.00,40.00,11,2,11,0.00
2013-5-23,86.4,76.8,68.4,71.8,68.6,62.2,94,77,53,0.00,40.00,17,4,19,0.00
2013-5-24,87.3,77.8,68.2,72.1,69.2,62.8,92,76,55,0.00,40.00,17,5,21,0.54
2013-5-25,84.9,72.8,67.5,70.7,66.7,59.7,94,82,56,0.00,40.00,18,5,26,0.11
2013-5-26,87.6,77.8,70.0,71.2,68.9,66.7,92,76,52,0.00,40.00,18,6,23,0.10
2013-5-27,87.8,78.8,70.9,68.5,66.8,64.8,87,68,47,0.00,40.00,30,9,30,0.00
2013-5-28,87.6,78.9,70.9,68.9,65.6,62.2,85,65,45,0.00,40.00,31,10,32,0.00
2013-5-29,82.9,76.9,72.9,70.2,68.1,66.7,85,75,62,0.00,40.00,31,10,33,0.06
2013-5-30,88.5,79.8,74.1,73.2,69.8,67.5,85,72,56,0.00,40.00,31,11,33,0.01
2013-5-31,91.8,82.5,76.3,73.2,70.5,68.0,82,68,47,0.00,40.00,28,10,30,0.00
2013-6-1,89.4,79.6,74.7,74.1,70.2,67.3,84,73,56,0.00,40.00,26,9,31,0.00
2013-6-2,81.1,74.0,65.8,67.3,56.0,45.7,78,56,30,0.00,40.00,16,5,18,0.00
2013-6-3,89.2,75.2,61.2,63.1,58.3,53.4,84,59,32,0.00,40.00,12,4,13,0.00
2013-6-4,90.3,78.7,67.6,68.9,65.4,61.0,83,65,45,0.00,40.00,19,6,23,0.00
2013-6-5,91.2,80.6,70.9,70.3,67.5,62.2,86,66,39,0.00,40.00,23,4,25,0.00
2013-6-6,79.0,72.8,66.6,71.2,66.4,63.0,93,81,64,0.00,40.00,29,5,31,0.66
2013-6-7,81.9,72.3,63.0,64.0,57.9,50.5,90,64,36,0.00,40.00,17,4,20,0.00
2013-6-8,88.0,76.6,62.8,63.0,58.6,54.3,79,56,37,0.00,40.00,18,4,19,0.00
2013-6-9,88.9,77.1,68.7,69.4,65.9,61.3,93,70,44,0.00,40.00,18,3,21,0.16
2013-6-10,97.3,83.4,70.3,71.6,66.4,58.3,90,61,28,0.00,40.00,18,4,18,0.00
2013-6-11,94.3,83.6,73.8,73.4,69.4,65.7,88,64,41,0.00,40.00,21,6,21,0.00
2013-6-12,94.3,83.5,74.7,72.9,69.7,64.2,91,66,38,0.00,40.00,23,6,24,0.00
2013-6-13,97.9,85.7,73.8,72.1,69.0,63.7,85,60,34,0.00,40.00,14,4,16,0.00
2013-6-14,96.8,86.0,74.7,73.2,69.2,63.5,82,60,35,0.00,40.00,10,2,11,0.00
2013-6-15,91.4,81.8,72.3,77.4,71.1,65.3,84,71,53,0.00,40.00,24,4,24,0.08
2013-6-16,96.6,84.3,75.4,73.4,69.9,64.4,89,65,36,0.00,40.00,15,4,17,0.00
2013-6-17,90.1,80.1,68.7,75.6,70.9,64.6,93,74,54,0.00,40.00,29,4,33,0.60
2013-6-18,81.3,76.1,72.5,72.9,68.7,66.4,87,78,66,0.00,40.00,14,3,17,0.00
2013-6-19,91.2,80.1,70.2,73.6,70.3,67.6,94,74,48,0.00,40.00,15,4,15,0.00
2013-6-20,95.9,84.9,75.6,71.8,68.7,63.5,86,61,35,0.00,40.00,19,6,24,0.00
2013-6-21,96.3,84.4,74.7,72.1,68.7,63.1,85,62,35,0.00,40.00,19,6,22,0.00
2013-6-22,94.5,84.3,74.1,71.8,68.1,62.8,84,60,39,0.00,40.00,20,7,25,0.00
2013-6-23,95.4,84.6,74.7,71.8,67.6,62.4,82,59,35,0.00,40.00,21,7,23,0.00
2013-6-24,95.4,84.9,74.8,73.0,67.7,63.0,81,59,36,0.00,40.00,21,6,27,0.00
2013-6-25,97.3,85.9,75.4,72.0,67.3,60.6,81,57,31,0.00,40.00,29,9,29,0.00
2013-6-26,98.2,86.3,75.9,71.1,67.4,62.4,83,55,34,0.00,40.00,23,8,25,0.00
2013-6-27,99.9,86.8,76.5,72.7,68.4,61.3,76,56,29,0.00,40.00,18,4,23,0.00
2013-6-28,99.7,86.7,76.6,70.0,65.8,61.0,69,52,32,0.00,40.00,15,4,20,0.00
2013-6-29,91.8,81.2,76.1,69.3,63.7,55.4,69,57,30,0.00,40.00,16,3,18,0.00
2013-6-30,87.4,81.0,73.8,58.8,53.6,50.9,57,40,30,0.00,40.00,15,5,18,0.00
2013-7-1,85.5,76.6,67.1,61.2,57.3,53.4,73,53,35,0.00,40.00,19,5,19,0.00
2013-7-2,86.5,77.0,65.5,59.7,52.7,43.9,69,45,24,0.00,40.00,15,4,17,0.00
2013-7-3,90.7,78.8,63.1,61.0,52.0,43.9,73,42,20,0.00,40.00,11,2,11,0.00
2013-7-4,94.6,80.0,68.5,64.2,58.7,51.4,71,51,24,0.00,40.00,18,4,21,0.00
2013-7-5,94.8,81.8,67.5,66.2,60.7,54.9,83,53,27,0.00,40.00,14,4,16,0.00
2013-7-6,95.4,82.0,70.9,68.0,61.5,55.4,72,52,27,0.00,40.00,16,4,18,0.00
2013-7-7,97.2,85.1,72.3,71.2,65.0,58.3,77,53,29,0.00,40.00,15,4,17,0.00
2013-7-8,97.2,83.9,75.4,72.0,69.0,64.9,83,63,35,0.00,40.00,18,5,24,0.00
2013-7-9,99.1,87.6,75.4,72.0,64.6,56.5,80,50,25,0.00,40.00,20,5,23,0.00
2013-7-10,102.4,89.8,79.9,72.0,66.5,59.9,72,49,26,0.00,40.00,15,5,20,0.00
2013-7-11,102.4,86.0,76.8,71.6,67.9,59.7,79,57,27,0.00,40.00,28,4,29,0.00
2013-7-12,99.3,85.0,72.9,72.1,68.7,62.1,90,62,30,0.00,40.00,13,4,14,0.00
2013-7-13,96.6,86.2,75.9,69.8,63.4,57.4,74,49,29,0.00,40.00,15,5,16,0.00
2013-7-14,76.3,72.2,69.3,68.9,64.8,57.0,92,79,54,0.00,40.00,12,3,13,0.14
2013-7-15,75.9,71.3,67.6,70.5,67.1,64.8,94,87,76,0.00,40.00,14,3,16,0.23
2013-7-16,88.9,76.9,70.9,73.6,70.0,66.9,91,81,50,0.00,40.00,27,4,29,0.64
2013-7-17,90.5,79.3,70.9,74.1,70.0,65.7,95,75,46,0.00,40.00,19,4,19,0.65
2013-7-18,96.3,83.3,72.5,73.4,68.6,64.2,87,64,36,0.00,40.00,17,2,22,0.00
2013-7-19,92.7,79.6,74.5,75.4,70.8,65.7,89,76,43,0.00,40.00,13,3,16,0.13
2013-7-20,94.5,80.0,71.8,74.7,70.5,64.2,92,75,38,0.00,40.00,16,3,22,0.05
2013-7-21,96.3,84.0,72.7,74.3,70.4,63.1,92,67,35,0.00,40.00,18,5,21,0.00
2013-7-22,97.3,86.0,76.1,74.3,70.3,63.9,89,63,34,0.00,40.00,22,6,22,0.00
2013-7-23,99.0,88.9,77.7,74.7,70.1,59.2,84,56,31,0.00,40.00,22,8,24,0.00
2013-7-24,92.5,82.3,74.5,72.1,68.3,64.0,82,64,44,0.00,40.00,19,5,23,0.00
2013-7-25,94.5,83.0,72.1,74.1,69.5,66.9,88,66,41,0.00,40.00,13,3,14,0.00
2013-7-26,95.9,82.7,76.3,75.4,70.8,66.4,88,69,40,0.00,40.00,22,4,24,0.08
2013-7-27,88.2,78.5,70.9,71.2,65.7,59.7,86,67,39,0.00,40.00,17,5,17,0.00
2013-7-28,93.6,80.3,67.8,69.8,66.4,63.7,89,65,39,0.00,40.00,15,4,17,0.00
2013-7-29,96.1,85.1,76.5,73.4,68.6,56.8,86,61,30,0.00,40.00,26,7,26,0.00
2013-7-30,98.1,87.4,77.9,71.6,66.5,55.6,80,52,35,0.00,40.00,23,7,25,0.00
2013-7-31,100.9,88.1,77.0,71.2,66.8,61.7,73,52,28,0.00,40.00,18,4,19,0.00
2013-8-1,102.0,90.7,77.2,71.6,68.2,63.5,80,50,29,0.00,40.00,14,3,14,0.00
2013-8-2,102.4,89.6,77.5,70.7,66.5,60.1,76,50,26,0.00,40.00,17,5,25,0.00
2013-8-3,101.5,89.2,77.5,70.7,66.8,59.5,72,50,27,0.00,40.00,18,5,18,0.00
2013-8-4,100.8,88.1,76.6,72.1,67.8,59.7,81,54,27,0.00,40.00,17,4,17,0.00
2013-8-5,102.4,90.2,80.2,71.1,64.8,57.7,71,46,24,0.00,40.00,17,5,19,0.00
2013-8-6,103.1,90.0,77.9,70.5,65.0,58.3,74,47,25,0.00,40.00,21,6,21,0.00
2013-8-7,104.2,90.5,78.4,71.4,66.0,59.2,75,48,25,0.00,40.00,24,7,24,0.00
2013-8-8,103.6,90.1,78.6,73.2,66.0,59.2,78,48,27,0.00,40.00,21,5,21,0.00
2013-8-9,104.2,89.7,77.7,69.6,60.7,48.6,66,42,17,0.00,40.00,19,4,19,0.00
2013-8-10,97.2,85.8,73.8,73.6,68.1,60.1,88,58,35,0.00,40.00,16,4,17,0.00
2013-8-11,101.7,87.1,75.0,72.9,67.9,57.6,85,56,24,0.00,40.00,18,3,23,0.00
2013-8-12,99.7,88.3,76.1,72.7,67.5,60.4,81,53,28,0.00,40.00,16,4,17,0.00
2013-8-13,99.3,84.0,75.4,73.2,69.2,64.4,90,63,34,0.00,40.00,22,5,23,0.74
2013-8-14,87.6,79.9,74.8,75.2,70.9,66.0,94,75,55,0.00,40.00,13,4,16,0.00
2013-8-15,88.9,77.7,69.1,67.1,62.5,57.7,81,61,40,0.00,40.00,14,4,15,0.00
2013-8-16,86.7,76.6,67.5,66.0,61.7,57.7,88,62,39,0.00,40.00,27,4,27,0.01
2013-8-17,88.9,76.0,62.1,60.1,57.2,52.3,86,56,30,0.00,40.00,17,4,18,0.00
2013-8-18,90.7,79.0,66.4,66.4,59.2,52.5,82,54,28,0.00,40.00,11,3,14,0.00
2013-8-19,95.9,82.5,70.0,66.2,59.5,52.5,80,50,25,0.00,40.00,16,4,16,0.00
2013-8-20,96.1,82.7,69.4,64.8,59.1,53.8,73,48,25,0.00,40.00,15,3,15,0.00
2013-8-21,97.3,83.8,71.8,67.6,62.7,56.7,79,52,27,0.00,40.00,16,3,16,0.00
2013-8-22,99.7,87.3,72.9,71.1,65.7,59.2,78,51,27,0.00,40.00,14,3,17,0.00
2013-8-23,99.9,87.0,75.7,72.5,66.7,58.6,81,54,28,0.00,40.00,16,3,20,0.00
2013-8-24,98.8,87.0,75.6,70.5,65.6,56.3,76,52,26,0.00,40.00,17,4,22,0.00
2013-8-25,96.6,85.3,73.6,70.0,64.8,59.0,78,53,30,0.00,40.00,18,4,27,0.00
2013-8-26,95.9,84.0,72.7,68.9,64.0,55.4,82,55,27,0.00,40.00,20,5,23,0.00
2013-8-27,93.7,87.3,78.6,68.9,66.0,61.0,69,51,35,0.00,40.00,20,3,20,0.00
2013-8-28,98.8,85.4,72.9,71.1,64.9,58.1,82,54,28,0.00,40.00,13,2,19,0.00
2013-8-29,101.5,88.1,74.1,67.8,62.6,56.7,75,46,25,0.00,40.00,14,2,15,0.00
2013-8-30,102.6,89.5,75.7,68.7,61.7,55.9,69,42,23,0.00,40.00,13,3,14,0.00
2013-8-31,103.8,89.4,76.1,71.2,63.7,56.8,78,46,23,0.00,40.00,13,3,13,0.00
2013-9-1,102.7,89.8,77.7,70.5,64.9,58.6,71,46,24,0.00,40.00,19,3,25,0.01
2013-9-2,93.4,82.2,73.9,73.6,69.6,65.7,87,67,42,0.00,40.00,18,2,20,1.06
2013-9-3,97.3,85.2,73.8,72.3,65.2,57.4,79,54,27,0.00,40.00,11,2,12,0.00
2013-9-4,97.9,85.9,74.1,72.0,65.8,58.3,80,54,28,0.00,40.00,13,4,14,0.00
2013-9-5,98.8,86.2,73.9,70.2,63.0,53.8,74,49,23,0.00,40.00,9,3,12,0.00
2013-9-6,99.1,86.1,72.9,71.4,62.5,55.4,70,47,27,0.00,40.00,16,3,19,0.00
2013-9-7,99.1,85.9,74.8,71.4,63.9,54.9,78,51,25,0.00,40.00,15,3,17,0.00
2013-9-8,97.2,83.4,70.0,71.1,63.6,55.9,85,55,28,0.00,40.00,13,3,15,0.00
2013-9-9,95.5,83.8,70.9,70.2,63.4,55.9,84,53,27,0.00,40.00,16,4,20,0.00
2013-9-10,93.6,81.6,71.8,71.8,63.4,49.8,86,58,24,0.00,40.00,19,4,22,0.00
2013-9-11,95.9,81.9,71.6,69.6,65.1,59.9,81,59,33,0.00,40.00,20,2,21,0.00
2013-9-12,95.9,83.9,72.5,69.1,66.1,61.5,83,58,34,0.00,40.00,13,2,15,0.00
2013-9-13,94.5,84.2,74.1,70.5,66.5,61.0,78,57,34,0.00,40.00,12,3,15,0.00
2013-9-14,91.4,81.7,73.2,66.7,59.9,54.3,65,49,34,0.00,40.00,17,6,21,0.00
2013-9-15,94.8,83.0,71.6,68.5,61.0,55.6,59,48,34,0.00,40.00,12,4,13,0.00
2013-9-16,95.5,84.1,73.2,71.6,63.4,55.9,74,52,28,0.00,40.00,11,2,13,0.00
2013-9-17,93.4,84.8,75.9,67.8,63.7,54.3,69,51,27,0.00,40.00,13,3,17,0.00
2013-9-18,96.8,84.8,75.7,68.9,63.5,54.5,71,51,26,0.00,40.00,17,4,22,0.00
2013-9-19,89.1,81.1,74.7,73.4,69.3,61.7,92,69,48,0.00,40.00,15,3,17,0.24
2013-9-20,74.7,72.6,68.9,72.5,69.4,63.5,98,90,81,0.00,40.00,19,6,20,1.41
2013-9-21,82.2,71.1,60.4,63.3,51.2,41.7,83,54,24,0.00,40.00,16,6,17,0.00
2013-9-22,82.4,70.0,58.6,56.3,50.7,45.3,73,52,28,0.00,40.00,13,4,15,0.00
2013-9-23,86.7,71.6,57.9,58.5,52.6,46.9,79,54,26,0.00,40.00,15,4,20,0.00
2013-9-24,92.5,78.1,63.5,67.5,55.8,44.1,85,51,20,0.00,40.00,16,4,18,0.00
2013-9-25,94.6,77.0,58.6,58.1,50.0,41.2,85,43,16,0.00,40.00,9,2,11,0.00
2013-9-26,93.9,78.7,64.9,60.4,54.2,50.2,64,45,25,0.00,40.00,18,4,18,0.00
2013-9-27,87.4,77.6,65.8,70.5,64.3,57.7,81,64,54,0.00,40.00,17,6,21,0.00
2013-9-28,88.3,76.2,65.1,72.9,68.8,63.0,94,79,57,0.00,40.00,22,7,28,0.72
2013-9-29,81.3,70.6,63.3,63.1,56.6,47.3,93,65,34,0.00,40.00,14,4,16,0.00
2013-9-30,87.4,74.3,59.9,66.0,56.6,46.8,85,58,28,0.00,40.00,11,2,14,0.00
2013-10-1,90.5,78.3,70.2,71.1,67.5,58.5,94,72,36,0.00,40.00,16,4,17,0.00
2013-10-2,88.0,78.5,72.3,70.9,68.7,64.0,91,73,48,0.00,40.00,17,6,21,0.00
2013-10-3,90.7,79.5,72.0,71.6,69.0,65.8,90,72,47,0.00,40.00,21,6,24,0.00
2013-10-4,89.8,79.7,73.2,70.9,68.1,64.6,92,70,45,0.00,40.00,21,7,26,0.00
2013-10-5,77.0,64.8,50.7,70.5,58.2,41.0,90,80,55,0.00,40.00,25,8,25,0.13
2013-10-6,73.0,61.1,52.0,51.1,41.2,30.6,91,54,21,0.00,40.00,21,5,22,0.01
2013-10-7,79.5,65.4,50.7,48.0,39.3,30.2,78,42,19,0.00,40.00,15,3,15,0.00
2013-10-8,80.1,65.4,53.2,52.2,46.6,38.8,74,53,28,0.00,40.00,13,3,14,0.00
2013-10-9,82.8,67.6,54.1,56.8,52.3,48.6,86,61,32,0.00,40.00,15,4,16,0.00
2013-10-10,82.9,70.0,57.9,60.6,56.0,49.3,89,64,32,0.00,40.00,18,5,18,0.00
2013-10-11,85.6,75.2,65.8,68.7,65.6,59.4,91,73,53,0.00,40.00,24,7,27,0.00
2013-10-12,89.2,77.7,69.8,73.6,69.1,64.4,94,76,53,0.00,40.00,22,5,24,0.00
2013-10-13,76.1,71.1,67.6,68.2,66.2,64.4,94,85,71,0.00,40.00,14,4,17,0.00
2013-10-14,72.3,70.2,68.2,71.2,68.0,65.3,97,93,88,0.00,40.00,18,6,21,0.90
2013-10-15,78.6,67.0,53.4,72.1,64.0,51.4,96,90,76,0.00,40.00,20,7,22,1.55
2013-10-16,61.0,55.4,52.0,54.1,51.2,48.2,95,86,67,0.00,40.00,19,5,21,0.20
2013-10-17,71.8,58.3,46.4,50.0,45.5,39.2,89,66,32,0.00,40.00,11,2,12,0.00
2013-10-18,71.2,60.6,51.3,55.4,50.4,46.6,88,70,42,0.00,40.00,21,4,24,0.00
2013-10-19,64.0,52.6,42.3,49.1,39.4,35.2,84,63,36,0.00,40.00,23,6,23,0.00
2013-10-20,71.1,56.8,42.1,47.8,41.6,37.6,85,60,31,0.00,40.00,21,5,21,0.00
2013-10-21,72.9,60.6,51.6,61.7,53.1,45.9,88,76,65,0.00,40.00,21,5,24,0.00
2013-10-22,74.5,58.1,41.9,47.3,41.9,34.9,89,61,27,0.00,40.00,13,3,16,0.00
2013-10-23,82.9,66.9,48.9,53.6,47.5,41.7,84,54,24,0.00,40.00,11,2,13,0.00
2013-10-24,77.5,64.7,52.2,54.3,48.4,42.6,81,57,37,0.00,40.00,15,4,16,0.00
2013-10-25,66.0,55.7,49.6,45.1,41.8,36.9,84,61,43,0.00,40.00,19,6,23,0.00
2013-12-3,59.6,58.7,57.3,48.0,46.7,43.0,71,65,55,29.50,29.49,5,4,0,0.00
2013-12-4,78.6,62.1,46.5,59.0,51.4,35.0,88,70,42,29.77,29.49,17,5,0,0.00
2013-12-5,46.5,34.3,29.1,35.0,25.9,21.0,90,73,58,30.09,29.77,26,11,0,0.03
2013-12-6,32.4,27.6,23.6,30.0,24.2,19.0,91,87,81,30.44,30.03,0,0,0,0.40
2013-12-7,26.3,23.2,20.2,24.0,19.4,15.0,91,85,79,30.48,30.23,0,0,0,0.00
2013-12-8,33.2,30.2,25.6,31.0,28.2,23.0,93,92,90,30.23,29.98,0,0,0,0.00
2013-12-9,32.5,31.2,27.5,31.0,27.6,21.0,93,86,75,30.33,30.09,0,0,0,0.00
2013-12-10,36.5,27.9,19.7,25.0,20.3,15.0,84,74,58,30.46,30.29,4,0,0,0.04
2013-12-11,43.5,33.3,24.7,33.0,26.3,21.0,85,76,59,30.52,30.26,9,4,0,0.05
2013-12-12,49.6,37.2,25.3,32.0,27.4,22.0,88,69,46,30.54,30.23,6,2,0,0.00
2013-12-13,45.5,41.9,39.2,45.0,37.0,29.0,96,83,64,30.22,29.73,12,6,0,0.12
2013-12-14,46.5,41.0,33.2,46.0,36.0,26.0,97,83,66,30.25,29.70,20,8,0,0.01
2013-12-15,59.3,42.4,29.3,34.0,29.0,25.0,85,63,29,30.28,30.15,9,2,0,0.00
2013-12-16,65.5,48.3,34.6,36.0,33.2,30.0,83,60,31,30.17,30.07,14,4,0,0.00
2013-12-17,68.6,51.6,37.3,39.0,35.5,32.0,81,57,30,30.21,30.11,6,2,0,0.00
2013-12-18,69.4,54.5,39.6,46.0,39.6,35.0,83,60,32,30.17,29.92,20,6,0,0.00
2013-12-19,72.0,61.4,50.4,61.0,54.1,46.0,92,78,59,29.92,29.66,27,10,0,0.00
2013-12-20,69.3,57.7,36.2,63.0,52.9,35.0,94,84,73,29.76,29.66,18,8,0,0.00
2013-12-21,40.5,37.5,35.0,39.0,36.3,34.0,95,95,94,29.68,29.55,16,6,0,0.75
2013-12-24,51.3,43.7,33.2,33.0,30.6,28.0,80,61,47,30.47,30.20,0,0,0,0.00
2013-12-25,57.2,42.9,32.7,40.0,33.4,28.0,83,70,53,30.33,30.20,0,0,0,0.00
2013-12-26,53.1,40.2,30.4,36.0,32.8,28.0,92,76,52,30.38,30.26,0,0,0,0.00
2013-12-27,57.5,45.0,33.1,39.0,34.7,30.0,90,70,43,30.38,30.24,0,0,0,0.00
2013-12-28,44.2,43.1,42.1,36.0,36.0,36.0,78,75,72,30.24,30.20,0,0,0,0.00
2013-12-29,52.5,39.9,31.9,41.0,31.2,22.0,78,71,63,30.20,29.90,0,0,0,0.00
2013-12-30,42.1,34.0,28.2,23.0,19.8,16.0,69,57,41,30.34,30.17,0,0,0,0.00
2013-12-31,53.5,39.4,26.4,28.0,23.3,20.0,78,55,31,30.38,30.15,0,0,0,0.00
2014-1-1,65.6,47.4,33.1,49.0,35.6,26.0,84,66,43,30.14,29.79,0,0,0,0.00
2014-1-2,40.9,32.0,24.2,25.0,17.4,15.0,71,56,38,30.41,30.09,0,0,0,0.00